sensor_id;sensor_type;location;lat;lon;timestamp;P1;durP1;ratioP1;P2;durP2;ratioP2
79706;SDS011;69200;53.612;-2.416;2023-07-30T00:01:10;9.43;;;1.80;;
79706;SDS011;69200;53.612;-2.416;2023-07-30T00:03:36;12.05;;;2.60;;
79706;SDS011;69200;53.612;-2.416;2023-07-30T00:06:01;7.03;;;1.73;;
79706;SDS011;69200;53.612;-2.416;2023-07-30T00:08:27;11.52;;;2.60;;
79706;SDS011;69200;53.612;-2.416;2023-07-30T00:10:52;13.38;;;2.20;;
79706;SDS011;69200;53.612;-2.416;2023-07-30T00:13:17;12.40;;;2.20;;
79706;SDS011;69200;53.612;-2.416;2023-07-30T00:15:45;8.68;;;2.08;;
79706;SDS011;69200;53.612;-2.416;2023-07-30T00:18:11;12.07;;;1.98;;
79706;SDS011;69200;53.612;-2.416;2023-07-30T00:20:36;10.65;;;2.38;;
79706;SDS011;69200;53.612;-2.416;2023-07-30T00:23:02;10.65;;;1.95;;
79706;SDS011;69200;53.612;-2.416;2023-07-30T00:25:27;10.82;;;2.03;;
79706;SDS011;69200;53.612;-2.416;2023-07-30T00:27:52;11.85;;;2.65;;
79706;SDS011;69200;53.612;-2.416;2023-07-30T00:30:18;12.77;;;1.90;;
79706;SDS011;69200;53.612;-2.416;2023-07-30T00:32:43;8.50;;;2.33;;
79706;SDS011;69200;53.612;-2.416;2023-07-30T00:35:09;9.10;;;1.95;;
79706;SDS011;69200;53.612;-2.416;2023-07-30T00:37:35;11.20;;;2.05;;
79706;SDS011;69200;53.612;-2.416;2023-07-30T00:40:01;11.40;;;2.10;;
79706;SDS011;69200;53.612;-2.416;2023-07-30T00:42:28;10.15;;;1.90;;
79706;SDS011;69200;53.612;-2.416;2023-07-30T00:44:53;16.05;;;1.95;;
79706;SDS011;69200;53.612;-2.416;2023-07-30T00:47:19;9.65;;;2.13;;
79706;SDS011;69200;53.612;-2.416;2023-07-30T00:49:45;10.60;;;1.90;;
79706;SDS011;69200;53.612;-2.416;2023-07-30T00:52:11;16.40;;;2.63;;
79706;SDS011;69200;53.612;-2.416;2023-07-30T00:54:36;8.95;;;1.60;;
79706;SDS011;69200;53.612;-2.416;2023-07-30T00:57:04;10.70;;;1.83;;
79706;SDS011;69200;53.612;-2.416;2023-07-30T00:59:29;7.85;;;1.88;;
79706;SDS011;69200;53.612;-2.416;2023-07-30T01:01:55;14.13;;;2.30;;
79706;SDS011;69200;53.612;-2.416;2023-07-30T01:04:22;12.77;;;1.95;;
79706;SDS011;69200;53.612;-2.416;2023-07-30T01:06:47;12.43;;;2.20;;
79706;SDS011;69200;53.612;-2.416;2023-07-30T01:09:13;14.02;;;2.25;;
79706;SDS011;69200;53.612;-2.416;2023-07-30T01:11:39;11.20;;;1.73;;
79706;SDS011;69200;53.612;-2.416;2023-07-30T01:14:05;13.05;;;2.20;;
79706;SDS011;69200;53.612;-2.416;2023-07-30T01:16:33;7.28;;;1.73;;
79706;SDS011;69200;53.612;-2.416;2023-07-30T01:18:58;7.43;;;1.60;;
79706;SDS011;69200;53.612;-2.416;2023-07-30T01:21:26;7.95;;;1.45;;
79706;SDS011;69200;53.612;-2.416;2023-07-30T01:23:51;8.82;;;1.83;;
79706;SDS011;69200;53.612;-2.416;2023-07-30T01:26:19;7.63;;;1.75;;
79706;SDS011;69200;53.612;-2.416;2023-07-30T01:28:49;8.68;;;2.03;;
79706;SDS011;69200;53.612;-2.416;2023-07-30T01:31:19;9.65;;;1.67;;
79706;SDS011;69200;53.612;-2.416;2023-07-30T01:33:47;5.88;;;1.52;;
79706;SDS011;69200;53.612;-2.416;2023-07-30T01:36:17;11.88;;;1.80;;
79706;SDS011;69200;53.612;-2.416;2023-07-30T01:38:45;9.48;;;1.75;;
79706;SDS011;69200;53.612;-2.416;2023-07-30T01:41:12;7.95;;;1.55;;
79706;SDS011;69200;53.612;-2.416;2023-07-30T01:43:38;13.77;;;2.35;;
79706;SDS011;69200;53.612;-2.416;2023-07-30T01:46:03;10.05;;;1.77;;
79706;SDS011;69200;53.612;-2.416;2023-07-30T01:48:29;7.57;;;1.40;;
79706;SDS011;69200;53.612;-2.416;2023-07-30T01:50:54;8.40;;;1.42;;
79706;SDS011;69200;53.612;-2.416;2023-07-30T01:53:20;12.25;;;2.03;;
79706;SDS011;69200;53.612;-2.416;2023-07-30T01:55:45;5.45;;;1.20;;
79706;SDS011;69200;53.612;-2.416;2023-07-30T01:58:13;8.88;;;1.15;;
79706;SDS011;69200;53.612;-2.416;2023-07-30T02:00:39;5.78;;;1.17;;
79706;SDS011;69200;53.612;-2.416;2023-07-30T02:03:05;3.90;;;1.10;;
79706;SDS011;69200;53.612;-2.416;2023-07-30T02:05:31;5.15;;;1.00;;
79706;SDS011;69200;53.612;-2.416;2023-07-30T02:07:57;5.88;;;1.00;;
79706;SDS011;69200;53.612;-2.416;2023-07-30T02:10:24;8.20;;;1.33;;
79706;SDS011;69200;53.612;-2.416;2023-07-30T02:12:49;8.90;;;1.20;;
79706;SDS011;69200;53.612;-2.416;2023-07-30T02:15:15;9.68;;;1.20;;
79706;SDS011;69200;53.612;-2.416;2023-07-30T02:17:40;7.93;;;1.10;;
79706;SDS011;69200;53.612;-2.416;2023-07-30T02:20:06;5.13;;;1.00;;
79706;SDS011;69200;53.612;-2.416;2023-07-30T02:22:32;3.42;;;0.80;;
79706;SDS011;69200;53.612;-2.416;2023-07-30T02:24:57;7.78;;;1.05;;
79706;SDS011;69200;53.612;-2.416;2023-07-30T02:27:22;6.13;;;0.95;;
79706;SDS011;69200;53.612;-2.416;2023-07-30T02:29:48;4.43;;;0.80;;
79706;SDS011;69200;53.612;-2.416;2023-07-30T02:32:13;6.60;;;1.25;;
79706;SDS011;69200;53.612;-2.416;2023-07-30T02:34:39;2.55;;;0.80;;
79706;SDS011;69200;53.612;-2.416;2023-07-30T02:37:04;6.60;;;1.00;;
79706;SDS011;69200;53.612;-2.416;2023-07-30T02:39:30;3.97;;;0.82;;
79706;SDS011;69200;53.612;-2.416;2023-07-30T02:41:55;8.98;;;1.02;;
79706;SDS011;69200;53.612;-2.416;2023-07-30T02:44:20;5.68;;;0.90;;
79706;SDS011;69200;53.612;-2.416;2023-07-30T02:46:46;6.07;;;1.00;;
79706;SDS011;69200;53.612;-2.416;2023-07-30T02:49:11;7.10;;;1.27;;
79706;SDS011;69200;53.612;-2.416;2023-07-30T02:51:36;3.15;;;0.73;;
79706;SDS011;69200;53.612;-2.416;2023-07-30T02:54:05;2.42;;;0.50;;
79706;SDS011;69200;53.612;-2.416;2023-07-30T02:56:32;4.88;;;0.90;;
79706;SDS011;69200;53.612;-2.416;2023-07-30T02:58:58;7.82;;;1.88;;
79706;SDS011;69200;53.612;-2.416;2023-07-30T03:01:24;2.85;;;1.00;;
79706;SDS011;69200;53.612;-2.416;2023-07-30T03:03:51;4.47;;;1.38;;
79706;SDS011;69200;53.612;-2.416;2023-07-30T03:06:16;5.90;;;0.98;;
79706;SDS011;69200;53.612;-2.416;2023-07-30T03:08:45;6.85;;;3.08;;
79706;SDS011;69200;53.612;-2.416;2023-07-30T03:11:10;10.55;;;0.90;;
79706;SDS011;69200;53.612;-2.416;2023-07-30T03:13:35;6.90;;;1.05;;
79706;SDS011;69200;53.612;-2.416;2023-07-30T03:16:01;4.25;;;0.98;;
79706;SDS011;69200;53.612;-2.416;2023-07-30T03:18:26;7.75;;;1.33;;
79706;SDS011;69200;53.612;-2.416;2023-07-30T03:20:56;5.25;;;1.05;;
79706;SDS011;69200;53.612;-2.416;2023-07-30T03:23:23;7.05;;;1.33;;
79706;SDS011;69200;53.612;-2.416;2023-07-30T03:25:48;6.88;;;1.10;;
79706;SDS011;69200;53.612;-2.416;2023-07-30T03:28:13;3.40;;;0.80;;
79706;SDS011;69200;53.612;-2.416;2023-07-30T03:30:39;4.32;;;0.95;;
79706;SDS011;69200;53.612;-2.416;2023-07-30T03:33:04;8.35;;;1.58;;
79706;SDS011;69200;53.612;-2.416;2023-07-30T03:35:30;6.55;;;1.35;;
79706;SDS011;69200;53.612;-2.416;2023-07-30T03:37:55;9.85;;;1.40;;
79706;SDS011;69200;53.612;-2.416;2023-07-30T03:40:20;3.95;;;1.25;;
79706;SDS011;69200;53.612;-2.416;2023-07-30T03:42:46;7.13;;;1.35;;
79706;SDS011;69200;53.612;-2.416;2023-07-30T03:45:11;4.38;;;0.93;;
79706;SDS011;69200;53.612;-2.416;2023-07-30T03:47:36;5.82;;;1.23;;
79706;SDS011;69200;53.612;-2.416;2023-07-30T03:50:02;3.58;;;0.85;;
79706;SDS011;69200;53.612;-2.416;2023-07-30T03:52:27;2.97;;;0.77;;
79706;SDS011;69200;53.612;-2.416;2023-07-30T03:54:53;5.50;;;1.10;;
79706;SDS011;69200;53.612;-2.416;2023-07-30T03:57:18;5.13;;;0.88;;
79706;SDS011;69200;53.612;-2.416;2023-07-30T03:59:43;7.03;;;1.02;;
79706;SDS011;69200;53.612;-2.416;2023-07-30T04:02:09;8.88;;;1.23;;
79706;SDS011;69200;53.612;-2.416;2023-07-30T04:04:35;7.78;;;1.10;;
79706;SDS011;69200;53.612;-2.416;2023-07-30T04:07:00;8.95;;;1.08;;
79706;SDS011;69200;53.612;-2.416;2023-07-30T04:09:26;11.32;;;1.80;;
79706;SDS011;69200;53.612;-2.416;2023-07-30T04:11:51;7.30;;;0.80;;
79706;SDS011;69200;53.612;-2.416;2023-07-30T04:14:17;3.90;;;1.00;;
79706;SDS011;69200;53.612;-2.416;2023-07-30T04:16:42;9.38;;;1.65;;
79706;SDS011;69200;53.612;-2.416;2023-07-30T04:19:11;4.35;;;1.10;;
79706;SDS011;69200;53.612;-2.416;2023-07-30T04:21:37;10.35;;;1.52;;
79706;SDS011;69200;53.612;-2.416;2023-07-30T04:24:02;4.32;;;1.20;;
79706;SDS011;69200;53.612;-2.416;2023-07-30T04:26:28;4.75;;;1.17;;
79706;SDS011;69200;53.612;-2.416;2023-07-30T04:28:53;7.18;;;1.10;;
79706;SDS011;69200;53.612;-2.416;2023-07-30T04:31:19;14.23;;;1.98;;
79706;SDS011;69200;53.612;-2.416;2023-07-30T04:33:44;10.27;;;1.40;;
79706;SDS011;69200;53.612;-2.416;2023-07-30T04:36:09;5.53;;;1.20;;
79706;SDS011;69200;53.612;-2.416;2023-07-30T04:38:35;9.98;;;1.55;;
79706;SDS011;69200;53.612;-2.416;2023-07-30T04:41:01;7.80;;;1.05;;
79706;SDS011;69200;53.612;-2.416;2023-07-30T04:43:26;6.63;;;1.58;;
79706;SDS011;69200;53.612;-2.416;2023-07-30T04:45:52;8.63;;;1.45;;
79706;SDS011;69200;53.612;-2.416;2023-07-30T04:48:17;6.78;;;1.23;;
79706;SDS011;69200;53.612;-2.416;2023-07-30T04:50:42;8.20;;;1.40;;
79706;SDS011;69200;53.612;-2.416;2023-07-30T04:53:08;9.85;;;1.60;;
79706;SDS011;69200;53.612;-2.416;2023-07-30T04:55:34;12.15;;;1.45;;
79706;SDS011;69200;53.612;-2.416;2023-07-30T04:57:59;7.70;;;1.48;;
79706;SDS011;69200;53.612;-2.416;2023-07-30T05:00:24;10.70;;;1.73;;
79706;SDS011;69200;53.612;-2.416;2023-07-30T05:02:50;5.90;;;1.27;;
79706;SDS011;69200;53.612;-2.416;2023-07-30T05:05:15;7.72;;;1.40;;
79706;SDS011;69200;53.612;-2.416;2023-07-30T05:07:41;12.85;;;1.60;;
79706;SDS011;69200;53.612;-2.416;2023-07-30T05:10:06;8.23;;;1.73;;
79706;SDS011;69200;53.612;-2.416;2023-07-30T05:12:35;14.23;;;1.65;;
79706;SDS011;69200;53.612;-2.416;2023-07-30T05:15:00;8.55;;;2.33;;
79706;SDS011;69200;53.612;-2.416;2023-07-30T05:17:25;9.57;;;1.70;;
79706;SDS011;69200;53.612;-2.416;2023-07-30T05:19:51;6.97;;;1.23;;
79706;SDS011;69200;53.612;-2.416;2023-07-30T05:22:16;5.30;;;1.50;;
79706;SDS011;69200;53.612;-2.416;2023-07-30T05:24:42;10.23;;;1.38;;
79706;SDS011;69200;53.612;-2.416;2023-07-30T05:27:07;10.30;;;1.70;;
79706;SDS011;69200;53.612;-2.416;2023-07-30T05:29:32;9.52;;;1.95;;
79706;SDS011;69200;53.612;-2.416;2023-07-30T05:31:58;3.92;;;1.20;;
79706;SDS011;69200;53.612;-2.416;2023-07-30T05:34:23;8.13;;;1.45;;
79706;SDS011;69200;53.612;-2.416;2023-07-30T05:36:49;7.93;;;1.40;;
79706;SDS011;69200;53.612;-2.416;2023-07-30T05:39:14;9.23;;;1.33;;
79706;SDS011;69200;53.612;-2.416;2023-07-30T05:41:39;5.82;;;1.10;;
79706;SDS011;69200;53.612;-2.416;2023-07-30T05:44:05;7.70;;;1.20;;
79706;SDS011;69200;53.612;-2.416;2023-07-30T05:46:30;8.02;;;1.42;;
79706;SDS011;69200;53.612;-2.416;2023-07-30T05:48:55;12.15;;;1.50;;
79706;SDS011;69200;53.612;-2.416;2023-07-30T05:51:21;14.30;;;1.70;;
79706;SDS011;69200;53.612;-2.416;2023-07-30T05:53:46;6.15;;;1.27;;
79706;SDS011;69200;53.612;-2.416;2023-07-30T05:56:12;9.15;;;1.48;;
79706;SDS011;69200;53.612;-2.416;2023-07-30T05:58:39;8.80;;;1.40;;
79706;SDS011;69200;53.612;-2.416;2023-07-30T06:01:04;7.80;;;1.23;;
79706;SDS011;69200;53.612;-2.416;2023-07-30T06:03:29;8.07;;;1.33;;
79706;SDS011;69200;53.612;-2.416;2023-07-30T06:05:55;11.35;;;1.67;;
79706;SDS011;69200;53.612;-2.416;2023-07-30T06:08:20;5.93;;;1.58;;
79706;SDS011;69200;53.612;-2.416;2023-07-30T06:10:46;7.50;;;1.10;;
79706;SDS011;69200;53.612;-2.416;2023-07-30T06:13:12;7.03;;;1.50;;
79706;SDS011;69200;53.612;-2.416;2023-07-30T06:15:37;6.50;;;1.15;;
79706;SDS011;69200;53.612;-2.416;2023-07-30T06:18:03;12.38;;;1.30;;
79706;SDS011;69200;53.612;-2.416;2023-07-30T06:20:29;6.35;;;1.15;;
79706;SDS011;69200;53.612;-2.416;2023-07-30T06:22:55;14.32;;;1.92;;
79706;SDS011;69200;53.612;-2.416;2023-07-30T06:25:20;12.45;;;1.77;;
79706;SDS011;69200;53.612;-2.416;2023-07-30T06:27:46;6.55;;;1.17;;
79706;SDS011;69200;53.612;-2.416;2023-07-30T06:30:11;5.80;;;1.23;;
79706;SDS011;69200;53.612;-2.416;2023-07-30T06:32:37;5.25;;;1.00;;
79706;SDS011;69200;53.612;-2.416;2023-07-30T06:35:02;7.25;;;1.10;;
79706;SDS011;69200;53.612;-2.416;2023-07-30T06:37:28;9.05;;;1.50;;
79706;SDS011;69200;53.612;-2.416;2023-07-30T06:39:54;5.13;;;1.05;;
79706;SDS011;69200;53.612;-2.416;2023-07-30T06:42:19;6.93;;;1.05;;
79706;SDS011;69200;53.612;-2.416;2023-07-30T06:44:44;3.83;;;1.23;;
79706;SDS011;69200;53.612;-2.416;2023-07-30T06:47:10;6.43;;;1.13;;
79706;SDS011;69200;53.612;-2.416;2023-07-30T06:49:36;11.48;;;1.60;;
79706;SDS011;69200;53.612;-2.416;2023-07-30T06:52:02;7.53;;;1.10;;
79706;SDS011;69200;53.612;-2.416;2023-07-30T06:54:28;4.47;;;0.80;;
79706;SDS011;69200;53.612;-2.416;2023-07-30T06:56:54;10.15;;;1.55;;
79706;SDS011;69200;53.612;-2.416;2023-07-30T06:59:20;9.32;;;1.05;;
79706;SDS011;69200;53.612;-2.416;2023-07-30T07:01:45;10.85;;;2.33;;
79706;SDS011;69200;53.612;-2.416;2023-07-30T07:04:11;4.65;;;0.93;;
79706;SDS011;69200;53.612;-2.416;2023-07-30T07:06:36;6.35;;;1.02;;
79706;SDS011;69200;53.612;-2.416;2023-07-30T07:09:01;5.03;;;0.95;;
79706;SDS011;69200;53.612;-2.416;2023-07-30T07:11:27;5.20;;;1.10;;
79706;SDS011;69200;53.612;-2.416;2023-07-30T07:13:52;4.55;;;0.80;;
79706;SDS011;69200;53.612;-2.416;2023-07-30T07:16:17;3.90;;;1.00;;
79706;SDS011;69200;53.612;-2.416;2023-07-30T07:18:43;6.28;;;0.88;;
79706;SDS011;69200;53.612;-2.416;2023-07-30T07:21:09;8.13;;;1.08;;
79706;SDS011;69200;53.612;-2.416;2023-07-30T07:23:35;6.78;;;1.48;;
79706;SDS011;69200;53.612;-2.416;2023-07-30T07:26:01;8.02;;;1.42;;
79706;SDS011;69200;53.612;-2.416;2023-07-30T07:28:26;6.50;;;1.33;;
79706;SDS011;69200;53.612;-2.416;2023-07-30T07:30:51;3.80;;;0.75;;
79706;SDS011;69200;53.612;-2.416;2023-07-30T07:33:17;5.15;;;1.00;;
79706;SDS011;69200;53.612;-2.416;2023-07-30T07:35:42;7.18;;;1.00;;
79706;SDS011;69200;53.612;-2.416;2023-07-30T07:38:08;7.10;;;1.02;;
79706;SDS011;69200;53.612;-2.416;2023-07-30T07:40:39;6.50;;;1.17;;
79706;SDS011;69200;53.612;-2.416;2023-07-30T07:43:05;6.47;;;1.13;;
79706;SDS011;69200;53.612;-2.416;2023-07-30T07:45:31;5.82;;;1.20;;
79706;SDS011;69200;53.612;-2.416;2023-07-30T07:47:57;7.47;;;1.20;;
79706;SDS011;69200;53.612;-2.416;2023-07-30T07:50:22;5.78;;;0.98;;
79706;SDS011;69200;53.612;-2.416;2023-07-30T07:52:48;5.68;;;1.08;;
79706;SDS011;69200;53.612;-2.416;2023-07-30T07:55:13;5.28;;;0.77;;
79706;SDS011;69200;53.612;-2.416;2023-07-30T07:57:39;8.90;;;1.30;;
79706;SDS011;69200;53.612;-2.416;2023-07-30T08:00:04;3.38;;;0.85;;
79706;SDS011;69200;53.612;-2.416;2023-07-30T08:02:31;3.60;;;0.60;;
79706;SDS011;69200;53.612;-2.416;2023-07-30T08:04:56;4.35;;;0.88;;
79706;SDS011;69200;53.612;-2.416;2023-07-30T08:07:22;5.60;;;0.88;;
79706;SDS011;69200;53.612;-2.416;2023-07-30T08:09:47;3.97;;;1.10;;
79706;SDS011;69200;53.612;-2.416;2023-07-30T08:12:13;7.63;;;1.20;;
79706;SDS011;69200;53.612;-2.416;2023-07-30T08:14:39;9.10;;;1.05;;
79706;SDS011;69200;53.612;-2.416;2023-07-30T08:17:04;3.25;;;0.82;;
79706;SDS011;69200;53.612;-2.416;2023-07-30T08:19:30;3.30;;;0.95;;
79706;SDS011;69200;53.612;-2.416;2023-07-30T08:21:55;10.60;;;1.38;;
79706;SDS011;69200;53.612;-2.416;2023-07-30T08:24:22;6.75;;;1.15;;
79706;SDS011;69200;53.612;-2.416;2023-07-30T08:26:47;6.57;;;1.02;;
79706;SDS011;69200;53.612;-2.416;2023-07-30T08:29:13;4.63;;;0.90;;
79706;SDS011;69200;53.612;-2.416;2023-07-30T08:31:39;5.15;;;1.00;;
79706;SDS011;69200;53.612;-2.416;2023-07-30T08:34:04;4.10;;;1.17;;
79706;SDS011;69200;53.612;-2.416;2023-07-30T08:36:29;6.75;;;1.00;;
79706;SDS011;69200;53.612;-2.416;2023-07-30T08:38:55;5.13;;;0.80;;
79706;SDS011;69200;53.612;-2.416;2023-07-30T08:41:20;9.40;;;1.65;;
79706;SDS011;69200;53.612;-2.416;2023-07-30T08:43:46;2.72;;;0.82;;
79706;SDS011;69200;53.612;-2.416;2023-07-30T08:46:14;8.05;;;1.00;;
79706;SDS011;69200;53.612;-2.416;2023-07-30T08:48:40;2.95;;;0.68;;
79706;SDS011;69200;53.612;-2.416;2023-07-30T08:51:05;3.83;;;0.80;;
79706;SDS011;69200;53.612;-2.416;2023-07-30T08:53:30;5.07;;;1.30;;
79706;SDS011;69200;53.612;-2.416;2023-07-30T08:55:57;11.20;;;0.73;;
79706;SDS011;69200;53.612;-2.416;2023-07-30T08:58:24;8.25;;;1.00;;
79706;SDS011;69200;53.612;-2.416;2023-07-30T09:00:51;4.65;;;0.77;;
79706;SDS011;69200;53.612;-2.416;2023-07-30T09:03:20;5.03;;;0.85;;
79706;SDS011;69200;53.612;-2.416;2023-07-30T09:05:47;6.07;;;1.00;;
79706;SDS011;69200;53.612;-2.416;2023-07-30T09:08:12;5.43;;;0.73;;
79706;SDS011;69200;53.612;-2.416;2023-07-30T09:10:40;4.65;;;0.70;;
79706;SDS011;69200;53.612;-2.416;2023-07-30T09:13:05;12.52;;;1.05;;
79706;SDS011;69200;53.612;-2.416;2023-07-30T09:15:31;7.53;;;0.95;;
79706;SDS011;69200;53.612;-2.416;2023-07-30T09:17:59;2.92;;;0.70;;
79706;SDS011;69200;53.612;-2.416;2023-07-30T09:20:25;4.70;;;0.70;;
79706;SDS011;69200;53.612;-2.416;2023-07-30T09:22:51;4.18;;;0.90;;
79706;SDS011;69200;53.612;-2.416;2023-07-30T09:25:20;3.30;;;0.77;;
79706;SDS011;69200;53.612;-2.416;2023-07-30T09:27:54;3.03;;;0.70;;
79706;SDS011;69200;53.612;-2.416;2023-07-30T09:32:54;6.95;;;0.98;;
79706;SDS011;69200;53.612;-2.416;2023-07-30T09:35:21;7.45;;;0.73;;
79706;SDS011;69200;53.612;-2.416;2023-07-30T09:37:49;6.05;;;0.80;;
79706;SDS011;69200;53.612;-2.416;2023-07-30T09:40:16;5.30;;;0.60;;
79706;SDS011;69200;53.612;-2.416;2023-07-30T09:42:44;3.13;;;0.77;;
79706;SDS011;69200;53.612;-2.416;2023-07-30T09:45:18;4.60;;;0.80;;
79706;SDS011;69200;53.612;-2.416;2023-07-30T09:47:48;4.82;;;0.80;;
79706;SDS011;69200;53.612;-2.416;2023-07-30T09:50:14;6.43;;;0.85;;
79706;SDS011;69200;53.612;-2.416;2023-07-30T09:52:40;8.65;;;0.90;;
79706;SDS011;69200;53.612;-2.416;2023-07-30T09:55:07;5.82;;;0.73;;
79706;SDS011;69200;53.612;-2.416;2023-07-30T09:57:33;1.67;;;0.55;;
79706;SDS011;69200;53.612;-2.416;2023-07-30T09:59:58;5.18;;;0.88;;
79706;SDS011;69200;53.612;-2.416;2023-07-30T10:02:24;5.57;;;1.00;;
79706;SDS011;69200;53.612;-2.416;2023-07-30T10:04:51;3.65;;;0.93;;
79706;SDS011;69200;53.612;-2.416;2023-07-30T10:07:22;5.05;;;0.95;;
79706;SDS011;69200;53.612;-2.416;2023-07-30T10:09:51;7.47;;;1.27;;
79706;SDS011;69200;53.612;-2.416;2023-07-30T10:12:21;5.07;;;0.70;;
79706;SDS011;69200;53.612;-2.416;2023-07-30T10:14:52;3.78;;;0.88;;
79706;SDS011;69200;53.612;-2.416;2023-07-30T10:17:17;6.15;;;0.90;;
79706;SDS011;69200;53.612;-2.416;2023-07-30T10:19:46;4.80;;;0.90;;
79706;SDS011;69200;53.612;-2.416;2023-07-30T10:24:39;5.28;;;0.77;;
79706;SDS011;69200;53.612;-2.416;2023-07-30T10:27:23;3.83;;;0.80;;
79706;SDS011;69200;53.612;-2.416;2023-07-30T10:29:50;4.28;;;0.60;;
79706;SDS011;69200;53.612;-2.416;2023-07-30T10:38:14;5.05;;;0.70;;
79706;SDS011;69200;53.612;-2.416;2023-07-30T10:40:59;4.70;;;0.70;;
79706;SDS011;69200;53.612;-2.416;2023-07-30T10:43:33;4.90;;;0.80;;
79706;SDS011;69200;53.612;-2.416;2023-07-30T10:46:00;1.85;;;0.40;;
79706;SDS011;69200;53.612;-2.416;2023-07-30T10:48:45;3.50;;;0.95;;
79706;SDS011;69200;53.612;-2.416;2023-07-30T10:51:16;4.60;;;1.45;;
79706;SDS011;69200;53.612;-2.416;2023-07-30T10:53:43;3.72;;;0.93;;
79706;SDS011;69200;53.612;-2.416;2023-07-30T10:56:10;6.75;;;0.90;;
79706;SDS011;69200;53.612;-2.416;2023-07-30T10:58:36;5.28;;;1.00;;
79706;SDS011;69200;53.612;-2.416;2023-07-30T11:01:03;6.68;;;1.00;;
79706;SDS011;69200;53.612;-2.416;2023-07-30T11:03:29;3.50;;;0.60;;
79706;SDS011;69200;53.612;-2.416;2023-07-30T11:05:56;3.47;;;0.73;;
79706;SDS011;69200;53.612;-2.416;2023-07-30T11:08:41;2.03;;;0.70;;
79706;SDS011;69200;53.612;-2.416;2023-07-30T11:11:09;7.35;;;0.90;;
79706;SDS011;69200;53.612;-2.416;2023-07-30T11:13:45;7.40;;;0.80;;
79706;SDS011;69200;53.612;-2.416;2023-07-30T11:18:37;4.55;;;0.47;;
79706;SDS011;69200;53.612;-2.416;2023-07-30T11:21:04;3.08;;;0.50;;
79706;SDS011;69200;53.612;-2.416;2023-07-30T11:23:31;2.45;;;0.43;;
79706;SDS011;69200;53.612;-2.416;2023-07-30T11:25:57;1.63;;;0.50;;
79706;SDS011;69200;53.612;-2.416;2023-07-30T11:28:43;2.13;;;0.40;;
79706;SDS011;69200;53.612;-2.416;2023-07-30T11:31:09;4.13;;;0.55;;
79706;SDS011;69200;53.612;-2.416;2023-07-30T11:33:43;2.92;;;0.60;;
79706;SDS011;69200;53.612;-2.416;2023-07-30T11:36:12;2.38;;;0.80;;
79706;SDS011;69200;53.612;-2.416;2023-07-30T11:38:40;5.25;;;0.60;;
79706;SDS011;69200;53.612;-2.416;2023-07-30T11:41:06;2.92;;;0.38;;
79706;SDS011;69200;53.612;-2.416;2023-07-30T11:43:35;2.97;;;0.50;;
79706;SDS011;69200;53.612;-2.416;2023-07-30T11:46:12;3.05;;;0.82;;
79706;SDS011;69200;53.612;-2.416;2023-07-30T11:48:39;2.45;;;0.47;;
79706;SDS011;69200;53.612;-2.416;2023-07-30T11:51:06;2.30;;;0.43;;
79706;SDS011;69200;53.612;-2.416;2023-07-30T11:53:51;4.50;;;0.50;;
79706;SDS011;69200;53.612;-2.416;2023-07-30T11:56:19;2.85;;;0.50;;
79706;SDS011;69200;53.612;-2.416;2023-07-30T11:58:45;1.13;;;0.30;;
79706;SDS011;69200;53.612;-2.416;2023-07-30T12:01:11;5.20;;;0.80;;
79706;SDS011;69200;53.612;-2.416;2023-07-30T12:03:37;1.45;;;0.40;;
79706;SDS011;69200;53.612;-2.416;2023-07-30T12:06:06;2.30;;;0.65;;
79706;SDS011;69200;53.612;-2.416;2023-07-30T12:08:33;2.70;;;0.70;;
79706;SDS011;69200;53.612;-2.416;2023-07-30T12:11:03;2.97;;;0.52;;
79706;SDS011;69200;53.612;-2.416;2023-07-30T12:13:30;4.72;;;0.60;;
79706;SDS011;69200;53.612;-2.416;2023-07-30T12:15:56;2.03;;;0.70;;
79706;SDS011;69200;53.612;-2.416;2023-07-30T12:18:22;1.50;;;0.40;;
79706;SDS011;69200;53.612;-2.416;2023-07-30T12:20:52;2.47;;;0.50;;
79706;SDS011;69200;53.612;-2.416;2023-07-30T12:23:19;1.90;;;0.43;;
79706;SDS011;69200;53.612;-2.416;2023-07-30T12:25:45;3.78;;;0.60;;
79706;SDS011;69200;53.612;-2.416;2023-07-30T12:28:11;1.58;;;0.40;;
79706;SDS011;69200;53.612;-2.416;2023-07-30T12:30:37;2.75;;;0.50;;
79706;SDS011;69200;53.612;-2.416;2023-07-30T12:33:02;3.08;;;0.93;;
79706;SDS011;69200;53.612;-2.416;2023-07-30T12:35:31;3.45;;;0.60;;
79706;SDS011;69200;53.612;-2.416;2023-07-30T12:37:58;1.70;;;0.43;;
79706;SDS011;69200;53.612;-2.416;2023-07-30T12:40:24;2.00;;;0.63;;
79706;SDS011;69200;53.612;-2.416;2023-07-30T12:42:49;2.03;;;0.60;;
79706;SDS011;69200;53.612;-2.416;2023-07-30T12:45:15;3.47;;;0.60;;
79706;SDS011;69200;53.612;-2.416;2023-07-30T12:47:41;3.00;;;0.88;;
79706;SDS011;69200;53.612;-2.416;2023-07-30T12:50:07;2.33;;;0.63;;
79706;SDS011;69200;53.612;-2.416;2023-07-30T12:52:33;1.63;;;0.47;;
79706;SDS011;69200;53.612;-2.416;2023-07-30T12:54:59;2.85;;;0.50;;
79706;SDS011;69200;53.612;-2.416;2023-07-30T12:57:25;5.03;;;0.85;;
79706;SDS011;69200;53.612;-2.416;2023-07-30T12:59:51;3.90;;;0.73;;
79706;SDS011;69200;53.612;-2.416;2023-07-30T13:02:16;2.95;;;0.80;;
79706;SDS011;69200;53.612;-2.416;2023-07-30T13:04:41;1.83;;;0.43;;
79706;SDS011;69200;53.612;-2.416;2023-07-30T13:07:07;2.58;;;0.68;;
79706;SDS011;69200;53.612;-2.416;2023-07-30T13:09:32;4.85;;;0.77;;
79706;SDS011;69200;53.612;-2.416;2023-07-30T13:11:57;1.33;;;0.52;;
79706;SDS011;69200;53.612;-2.416;2023-07-30T13:14:23;1.73;;;0.50;;
79706;SDS011;69200;53.612;-2.416;2023-07-30T13:16:48;2.55;;;0.60;;
79706;SDS011;69200;53.612;-2.416;2023-07-30T13:19:14;1.38;;;0.30;;
79706;SDS011;69200;53.612;-2.416;2023-07-30T13:21:39;2.35;;;0.40;;
79706;SDS011;69200;53.612;-2.416;2023-07-30T13:24:04;1.77;;;0.40;;
79706;SDS011;69200;53.612;-2.416;2023-07-30T13:26:30;2.63;;;0.60;;
79706;SDS011;69200;53.612;-2.416;2023-07-30T13:28:55;1.70;;;0.47;;
79706;SDS011;69200;53.612;-2.416;2023-07-30T13:31:20;3.53;;;0.65;;
79706;SDS011;69200;53.612;-2.416;2023-07-30T13:33:46;3.03;;;1.10;;
79706;SDS011;69200;53.612;-2.416;2023-07-30T13:36:13;2.63;;;0.47;;
79706;SDS011;69200;53.612;-2.416;2023-07-30T13:38:39;2.17;;;0.52;;
79706;SDS011;69200;53.612;-2.416;2023-07-30T13:41:05;3.83;;;0.75;;
79706;SDS011;69200;53.612;-2.416;2023-07-30T13:43:31;2.58;;;0.50;;
79706;SDS011;69200;53.612;-2.416;2023-07-30T13:45:57;3.58;;;0.90;;
79706;SDS011;69200;53.612;-2.416;2023-07-30T13:48:23;2.00;;;0.60;;
79706;SDS011;69200;53.612;-2.416;2023-07-30T13:50:49;3.35;;;0.75;;
79706;SDS011;69200;53.612;-2.416;2023-07-30T13:53:14;2.00;;;0.60;;
79706;SDS011;69200;53.612;-2.416;2023-07-30T13:55:40;6.15;;;1.10;;
79706;SDS011;69200;53.612;-2.416;2023-07-30T13:58:05;2.95;;;0.57;;
79706;SDS011;69200;53.612;-2.416;2023-07-30T14:00:31;3.90;;;0.60;;
79706;SDS011;69200;53.612;-2.416;2023-07-30T14:02:56;7.03;;;0.73;;
79706;SDS011;69200;53.612;-2.416;2023-07-30T14:05:22;2.50;;;0.40;;
79706;SDS011;69200;53.612;-2.416;2023-07-30T14:07:48;5.18;;;0.70;;
79706;SDS011;69200;53.612;-2.416;2023-07-30T14:10:15;4.65;;;0.80;;
79706;SDS011;69200;53.612;-2.416;2023-07-30T14:12:40;4.43;;;0.80;;
79706;SDS011;69200;53.612;-2.416;2023-07-30T14:15:06;3.70;;;0.65;;
79706;SDS011;69200;53.612;-2.416;2023-07-30T14:17:31;5.07;;;1.10;;
79706;SDS011;69200;53.612;-2.416;2023-07-30T14:19:57;3.00;;;0.60;;
79706;SDS011;69200;53.612;-2.416;2023-07-30T14:22:22;2.42;;;0.70;;
79706;SDS011;69200;53.612;-2.416;2023-07-30T14:24:47;4.75;;;0.82;;
79706;SDS011;69200;53.612;-2.416;2023-07-30T14:27:13;1.73;;;0.40;;
79706;SDS011;69200;53.612;-2.416;2023-07-30T14:29:39;1.92;;;0.50;;
79706;SDS011;69200;53.612;-2.416;2023-07-30T14:32:05;2.70;;;0.80;;
79706;SDS011;69200;53.612;-2.416;2023-07-30T14:34:31;1.67;;;0.45;;
79706;SDS011;69200;53.612;-2.416;2023-07-30T14:36:56;2.83;;;0.60;;
79706;SDS011;69200;53.612;-2.416;2023-07-30T14:39:22;3.08;;;0.60;;
79706;SDS011;69200;53.612;-2.416;2023-07-30T14:41:47;4.07;;;0.60;;